sensor_id;sensor_type;location;lat;lon;timestamp;P1;durP1;ratioP1;P2;durP2;ratioP2
28335;SDS011;15592;53.656;7.276;2023-08-06T00:00:05;2.33;;;2.10;;
28335;SDS011;15592;53.656;7.276;2023-08-06T00:02:31;2.15;;;1.95;;
28335;SDS011;15592;53.656;7.276;2023-08-06T00:04:56;2.70;;;2.50;;
28335;SDS011;15592;53.656;7.276;2023-08-06T00:07:22;2.42;;;2.22;;
28335;SDS011;15592;53.656;7.276;2023-08-06T00:09:48;2.50;;;2.30;;
28335;SDS011;15592;53.656;7.276;2023-08-06T00:12:13;2.90;;;2.60;;
28335;SDS011;15592;53.656;7.276;2023-08-06T00:14:39;2.58;;;2.33;;
28335;SDS011;15592;53.656;7.276;2023-08-06T00:17:05;2.83;;;2.47;;
28335;SDS011;15592;53.656;7.276;2023-08-06T00:19:31;2.47;;;2.28;;
28335;SDS011;15592;53.656;7.276;2023-08-06T00:21:57;2.70;;;2.40;;
28335;SDS011;15592;53.656;7.276;2023-08-06T00:24:23;3.65;;;2.20;;
28335;SDS011;15592;53.656;7.276;2023-08-06T00:26:49;2.15;;;1.95;;
28335;SDS011;15592;53.656;7.276;2023-08-06T00:29:14;2.20;;;2.00;;
28335;SDS011;15592;53.656;7.276;2023-08-06T00:31:40;1.83;;;1.73;;
28335;SDS011;15592;53.656;7.276;2023-08-06T00:34:05;2.17;;;1.98;;
28335;SDS011;15592;53.656;7.276;2023-08-06T00:36:31;2.05;;;1.73;;
28335;SDS011;15592;53.656;7.276;2023-08-06T00:38:57;2.33;;;2.13;;
28335;SDS011;15592;53.656;7.276;2023-08-06T00:41:22;3.58;;;2.33;;
28335;SDS011;15592;53.656;7.276;2023-08-06T00:43:48;2.67;;;2.47;;
28335;SDS011;15592;53.656;7.276;2023-08-06T00:46:13;3.10;;;2.80;;
28335;SDS011;15592;53.656;7.276;2023-08-06T00:48:40;3.50;;;3.13;;
28335;SDS011;15592;53.656;7.276;2023-08-06T00:51:07;5.63;;;3.97;;
28335;SDS011;15592;53.656;7.276;2023-08-06T00:53:35;4.50;;;4.10;;
28335;SDS011;15592;53.656;7.276;2023-08-06T00:56:03;4.57;;;4.13;;
28335;SDS011;15592;53.656;7.276;2023-08-06T00:58:28;4.65;;;4.13;;
28335;SDS011;15592;53.656;7.276;2023-08-06T01:00:55;5.80;;;4.53;;
28335;SDS011;15592;53.656;7.276;2023-08-06T01:03:20;6.60;;;4.80;;
28335;SDS011;15592;53.656;7.276;2023-08-06T01:05:47;4.82;;;4.30;;
28335;SDS011;15592;53.656;7.276;2023-08-06T01:16:20;4.05;;;3.50;;
28335;SDS011;15592;53.656;7.276;2023-08-06T01:18:46;4.82;;;4.07;;
28335;SDS011;15592;53.656;7.276;2023-08-06T01:21:17;4.30;;;3.90;;
28335;SDS011;15592;53.656;7.276;2023-08-06T01:23:43;4.63;;;4.00;;
28335;SDS011;15592;53.656;7.276;2023-08-06T01:26:11;4.07;;;3.45;;
28335;SDS011;15592;53.656;7.276;2023-08-06T01:29:30;4.90;;;4.13;;
28335;SDS011;15592;53.656;7.276;2023-08-06T01:31:37;4.22;;;3.72;;
28335;SDS011;15592;53.656;7.276;2023-08-06T01:34:05;3.80;;;3.35;;
28335;SDS011;15592;53.656;7.276;2023-08-06T01:36:34;4.63;;;3.50;;
28335;SDS011;15592;53.656;7.276;2023-08-06T01:39:01;4.70;;;3.80;;
28335;SDS011;15592;53.656;7.276;2023-08-06T01:41:27;5.53;;;3.88;;
28335;SDS011;15592;53.656;7.276;2023-08-06T01:43:52;4.38;;;3.85;;
28335;SDS011;15592;53.656;7.276;2023-08-06T01:46:18;4.80;;;3.88;;
28335;SDS011;15592;53.656;7.276;2023-08-06T01:48:43;5.10;;;4.20;;
28335;SDS011;15592;53.656;7.276;2023-08-06T01:51:09;4.88;;;4.15;;
28335;SDS011;15592;53.656;7.276;2023-08-06T01:53:35;4.65;;;3.92;;
28335;SDS011;15592;53.656;7.276;2023-08-06T01:56:00;4.63;;;4.15;;
28335;SDS011;15592;53.656;7.276;2023-08-06T01:58:26;4.65;;;4.10;;
28335;SDS011;15592;53.656;7.276;2023-08-06T02:00:52;4.90;;;4.05;;
28335;SDS011;15592;53.656;7.276;2023-08-06T02:03:17;4.18;;;3.75;;
28335;SDS011;15592;53.656;7.276;2023-08-06T02:05:43;4.45;;;3.85;;
28335;SDS011;15592;53.656;7.276;2023-08-06T02:08:08;5.03;;;3.83;;
28335;SDS011;15592;53.656;7.276;2023-08-06T02:10:34;3.67;;;3.38;;
28335;SDS011;15592;53.656;7.276;2023-08-06T02:13:00;4.03;;;3.42;;
28335;SDS011;15592;53.656;7.276;2023-08-06T02:15:26;3.83;;;3.42;;
28335;SDS011;15592;53.656;7.276;2023-08-06T02:17:51;3.70;;;3.03;;
28335;SDS011;15592;53.656;7.276;2023-08-06T02:20:17;3.38;;;3.03;;
28335;SDS011;15592;53.656;7.276;2023-08-06T02:22:43;3.28;;;2.97;;
28335;SDS011;15592;53.656;7.276;2023-08-06T02:25:08;3.75;;;3.25;;
28335;SDS011;15592;53.656;7.276;2023-08-06T02:27:34;3.72;;;3.22;;
28335;SDS011;15592;53.656;7.276;2023-08-06T02:30:00;3.58;;;3.20;;
28335;SDS011;15592;53.656;7.276;2023-08-06T02:32:26;3.75;;;3.35;;
28335;SDS011;15592;53.656;7.276;2023-08-06T02:34:51;4.20;;;3.78;;
28335;SDS011;15592;53.656;7.276;2023-08-06T02:37:17;3.80;;;3.50;;
28335;SDS011;15592;53.656;7.276;2023-08-06T02:39:43;4.47;;;4.00;;
28335;SDS011;15592;53.656;7.276;2023-08-06T02:42:08;5.20;;;3.65;;
28335;SDS011;15592;53.656;7.276;2023-08-06T02:44:34;3.50;;;3.20;;
28335;SDS011;15592;53.656;7.276;2023-08-06T02:47:00;3.22;;;2.88;;
28335;SDS011;15592;53.656;7.276;2023-08-06T02:49:26;4.43;;;3.15;;
28335;SDS011;15592;53.656;7.276;2023-08-06T02:51:52;4.25;;;3.50;;
28335;SDS011;15592;53.656;7.276;2023-08-06T02:54:18;3.70;;;3.13;;
28335;SDS011;15592;53.656;7.276;2023-08-06T02:56:47;3.63;;;3.25;;
28335;SDS011;15592;53.656;7.276;2023-08-06T02:59:13;4.35;;;3.95;;
28335;SDS011;15592;53.656;7.276;2023-08-06T03:01:38;4.25;;;3.85;;
28335;SDS011;15592;53.656;7.276;2023-08-06T03:04:05;4.80;;;4.30;;
28335;SDS011;15592;53.656;7.276;2023-08-06T03:06:31;5.25;;;4.40;;
28335;SDS011;15592;53.656;7.276;2023-08-06T03:08:56;4.68;;;4.03;;
28335;SDS011;15592;53.656;7.276;2023-08-06T03:11:22;6.22;;;4.32;;
28335;SDS011;15592;53.656;7.276;2023-08-06T03:13:48;3.80;;;3.50;;
28335;SDS011;15592;53.656;7.276;2023-08-06T03:16:14;3.50;;;3.20;;
28335;SDS011;15592;53.656;7.276;2023-08-06T03:18:39;4.18;;;3.60;;
28335;SDS011;15592;53.656;7.276;2023-08-06T03:21:05;3.83;;;3.35;;
28335;SDS011;15592;53.656;7.276;2023-08-06T03:23:31;3.88;;;3.47;;
28335;SDS011;15592;53.656;7.276;2023-08-06T03:26:03;4.72;;;3.40;;
28335;SDS011;15592;53.656;7.276;2023-08-06T03:28:29;3.60;;;3.30;;
28335;SDS011;15592;53.656;7.276;2023-08-06T03:31:01;3.28;;;2.97;;
28335;SDS011;15592;53.656;7.276;2023-08-06T03:33:27;3.80;;;3.15;;
28335;SDS011;15592;53.656;7.276;2023-08-06T03:35:53;2.90;;;2.60;;
28335;SDS011;15592;53.656;7.276;2023-08-06T03:38:19;3.10;;;2.80;;
28335;SDS011;15592;53.656;7.276;2023-08-06T03:40:46;3.35;;;3.03;;
28335;SDS011;15592;53.656;7.276;2023-08-06T03:43:11;3.72;;;3.33;;
28335;SDS011;15592;53.656;7.276;2023-08-06T03:45:37;3.63;;;3.05;;
28335;SDS011;15592;53.656;7.276;2023-08-06T03:48:03;2.95;;;2.67;;
28335;SDS011;15592;53.656;7.276;2023-08-06T03:50:29;3.00;;;2.70;;
28335;SDS011;15592;53.656;7.276;2023-08-06T03:52:54;3.03;;;2.72;;
28335;SDS011;15592;53.656;7.276;2023-08-06T03:55:20;3.08;;;2.78;;
28335;SDS011;15592;53.656;7.276;2023-08-06T03:57:46;3.10;;;2.80;;
28335;SDS011;15592;53.656;7.276;2023-08-06T04:00:12;2.85;;;2.47;;
28335;SDS011;15592;53.656;7.276;2023-08-06T04:02:38;3.17;;;2.70;;
28335;SDS011;15592;53.656;7.276;2023-08-06T04:05:03;3.88;;;3.13;;
28335;SDS011;15592;53.656;7.276;2023-08-06T04:07:29;2.80;;;2.40;;
28335;SDS011;15592;53.656;7.276;2023-08-06T04:09:57;3.97;;;2.95;;
28335;SDS011;15592;53.656;7.276;2023-08-06T04:12:24;3.15;;;2.85;;
28335;SDS011;15592;53.656;7.276;2023-08-06T04:14:50;3.28;;;2.92;;
28335;SDS011;15592;53.656;7.276;2023-08-06T04:17:18;2.95;;;2.65;;
28335;SDS011;15592;53.656;7.276;2023-08-06T04:19:50;2.67;;;2.47;;
28335;SDS011;15592;53.656;7.276;2023-08-06T04:22:17;3.35;;;2.75;;
28335;SDS011;15592;53.656;7.276;2023-08-06T04:24:43;3.20;;;2.80;;
28335;SDS011;15592;53.656;7.276;2023-08-06T04:27:09;3.85;;;2.97;;
28335;SDS011;15592;53.656;7.276;2023-08-06T04:29:36;3.85;;;3.25;;
28335;SDS011;15592;53.656;7.276;2023-08-06T04:32:03;3.38;;;2.78;;
28335;SDS011;15592;53.656;7.276;2023-08-06T04:34:33;2.88;;;2.30;;
28335;SDS011;15592;53.656;7.276;2023-08-06T04:37:02;2.67;;;2.40;;
28335;SDS011;15592;53.656;7.276;2023-08-06T04:39:29;2.88;;;2.60;;
28335;SDS011;15592;53.656;7.276;2023-08-06T04:41:55;3.03;;;2.45;;
28335;SDS011;15592;53.656;7.276;2023-08-06T04:44:22;2.40;;;2.20;;
28335;SDS011;15592;53.656;7.276;2023-08-06T04:46:48;2.40;;;2.20;;
28335;SDS011;15592;53.656;7.276;2023-08-06T04:49:15;2.38;;;2.17;;
28335;SDS011;15592;53.656;7.276;2023-08-06T04:51:40;2.40;;;2.03;;
28335;SDS011;15592;53.656;7.276;2023-08-06T04:54:06;2.08;;;1.85;;
28335;SDS011;15592;53.656;7.276;2023-08-06T04:56:31;2.20;;;2.00;;
28335;SDS011;15592;53.656;7.276;2023-08-06T04:58:57;2.72;;;1.98;;
28335;SDS011;15592;53.656;7.276;2023-08-06T05:01:24;2.35;;;2.15;;
28335;SDS011;15592;53.656;7.276;2023-08-06T05:03:49;2.67;;;2.38;;
28335;SDS011;15592;53.656;7.276;2023-08-06T05:06:15;2.40;;;2.20;;
28335;SDS011;15592;53.656;7.276;2023-08-06T05:08:41;2.35;;;2.03;;
28335;SDS011;15592;53.656;7.276;2023-08-06T05:11:06;2.40;;;2.20;;
28335;SDS011;15592;53.656;7.276;2023-08-06T05:13:32;2.67;;;2.20;;
28335;SDS011;15592;53.656;7.276;2023-08-06T05:15:57;2.72;;;2.30;;
28335;SDS011;15592;53.656;7.276;2023-08-06T05:18:23;2.50;;;2.30;;
28335;SDS011;15592;53.656;7.276;2023-08-06T05:20:49;2.42;;;2.17;;
28335;SDS011;15592;53.656;7.276;2023-08-06T05:23:15;3.05;;;2.33;;
28335;SDS011;15592;53.656;7.276;2023-08-06T05:25:44;2.10;;;1.90;;
28335;SDS011;15592;53.656;7.276;2023-08-06T05:28:09;2.58;;;2.17;;
28335;SDS011;15592;53.656;7.276;2023-08-06T05:30:38;2.35;;;2.15;;
28335;SDS011;15592;53.656;7.276;2023-08-06T05:33:05;2.50;;;2.30;;
28335;SDS011;15592;53.656;7.276;2023-08-06T05:35:30;2.05;;;1.85;;
28335;SDS011;15592;53.656;7.276;2023-08-06T05:37:56;2.45;;;2.25;;
28335;SDS011;15592;53.656;7.276;2023-08-06T05:40:21;2.55;;;2.30;;
28335;SDS011;15592;53.656;7.276;2023-08-06T05:42:47;3.33;;;2.67;;
28335;SDS011;15592;53.656;7.276;2023-08-06T05:45:13;3.25;;;2.83;;
28335;SDS011;15592;53.656;7.276;2023-08-06T05:47:41;2.60;;;2.40;;
28335;SDS011;15592;53.656;7.276;2023-08-06T05:50:07;2.80;;;2.50;;
28335;SDS011;15592;53.656;7.276;2023-08-06T05:52:34;3.60;;;2.90;;
28335;SDS011;15592;53.656;7.276;2023-08-06T05:54:59;2.80;;;2.45;;
28335;SDS011;15592;53.656;7.276;2023-08-06T05:57:25;2.30;;;2.10;;
28335;SDS011;15592;53.656;7.276;2023-08-06T05:59:50;2.75;;;2.45;;
28335;SDS011;15592;53.656;7.276;2023-08-06T06:02:16;2.55;;;2.35;;
28335;SDS011;15592;53.656;7.276;2023-08-06T06:04:43;2.30;;;2.10;;
28335;SDS011;15592;53.656;7.276;2023-08-06T06:07:09;2.42;;;2.10;;
28335;SDS011;15592;53.656;7.276;2023-08-06T06:09:35;2.20;;;2.00;;
28335;SDS011;15592;53.656;7.276;2023-08-06T06:12:00;2.30;;;2.00;;
28335;SDS011;15592;53.656;7.276;2023-08-06T06:14:26;1.83;;;1.63;;
28335;SDS011;15592;53.656;7.276;2023-08-06T06:16:51;2.75;;;2.33;;
28335;SDS011;15592;53.656;7.276;2023-08-06T06:19:18;2.30;;;2.10;;
28335;SDS011;15592;53.656;7.276;2023-08-06T06:21:43;2.20;;;2.00;;
28335;SDS011;15592;53.656;7.276;2023-08-06T06:24:09;2.40;;;2.20;;
28335;SDS011;15592;53.656;7.276;2023-08-06T06:26:35;2.40;;;2.20;;
28335;SDS011;15592;53.656;7.276;2023-08-06T06:29:00;2.47;;;2.28;;
28335;SDS011;15592;53.656;7.276;2023-08-06T06:31:26;2.60;;;2.33;;
28335;SDS011;15592;53.656;7.276;2023-08-06T06:33:51;2.30;;;2.10;;
28335;SDS011;15592;53.656;7.276;2023-08-06T06:36:19;2.80;;;2.47;;
28335;SDS011;15592;53.656;7.276;2023-08-06T06:38:45;3.38;;;2.60;;
28335;SDS011;15592;53.656;7.276;2023-08-06T06:41:10;3.38;;;2.70;;
28335;SDS011;15592;53.656;7.276;2023-08-06T06:43:36;2.63;;;2.42;;
28335;SDS011;15592;53.656;7.276;2023-08-06T06:46:03;3.25;;;2.40;;
28335;SDS011;15592;53.656;7.276;2023-08-06T06:48:29;4.35;;;3.13;;
28335;SDS011;15592;53.656;7.276;2023-08-06T06:50:56;3.08;;;2.67;;
28335;SDS011;15592;53.656;7.276;2023-08-06T06:53:22;3.88;;;2.90;;
28335;SDS011;15592;53.656;7.276;2023-08-06T06:55:54;3.10;;;2.80;;
28335;SDS011;15592;53.656;7.276;2023-08-06T06:58:20;3.53;;;2.92;;
28335;SDS011;15592;53.656;7.276;2023-08-06T07:00:49;3.40;;;2.80;;
28335;SDS011;15592;53.656;7.276;2023-08-06T07:03:15;3.38;;;3.00;;
28335;SDS011;15592;53.656;7.276;2023-08-06T07:05:40;3.40;;;2.92;;
28335;SDS011;15592;53.656;7.276;2023-08-06T07:08:07;3.95;;;3.28;;
28335;SDS011;15592;53.656;7.276;2023-08-06T07:10:32;3.20;;;2.58;;
28335;SDS011;15592;53.656;7.276;2023-08-06T07:12:58;3.40;;;3.10;;
28335;SDS011;15592;53.656;7.276;2023-08-06T07:15:23;3.20;;;2.80;;
28335;SDS011;15592;53.656;7.276;2023-08-06T07:17:49;3.17;;;2.70;;
28335;SDS011;15592;53.656;7.276;2023-08-06T07:20:15;2.80;;;2.50;;
28335;SDS011;15592;53.656;7.276;2023-08-06T07:22:41;3.42;;;2.65;;
28335;SDS011;15592;53.656;7.276;2023-08-06T07:25:06;2.65;;;2.45;;
28335;SDS011;15592;53.656;7.276;2023-08-06T07:27:32;3.00;;;2.65;;
28335;SDS011;15592;53.656;7.276;2023-08-06T07:29:58;2.60;;;2.40;;
28335;SDS011;15592;53.656;7.276;2023-08-06T07:32:24;1.98;;;1.88;;
28335;SDS011;15592;53.656;7.276;2023-08-06T07:34:50;3.00;;;2.70;;
28335;SDS011;15592;53.656;7.276;2023-08-06T07:37:21;3.88;;;2.75;;
28335;SDS011;15592;53.656;7.276;2023-08-06T07:39:47;3.25;;;2.60;;
28335;SDS011;15592;53.656;7.276;2023-08-06T07:42:13;2.67;;;2.47;;
28335;SDS011;15592;53.656;7.276;2023-08-06T07:44:38;2.40;;;2.13;;
28335;SDS011;15592;53.656;7.276;2023-08-06T07:47:04;2.58;;;2.10;;
28335;SDS011;15592;53.656;7.276;2023-08-06T07:49:30;3.35;;;2.53;;
28335;SDS011;15592;53.656;7.276;2023-08-06T07:51:55;2.50;;;2.30;;
28335;SDS011;15592;53.656;7.276;2023-08-06T07:54:21;2.72;;;2.22;;
28335;SDS011;15592;53.656;7.276;2023-08-06T07:56:49;2.55;;;2.30;;
28335;SDS011;15592;53.656;7.276;2023-08-06T07:59:15;2.35;;;1.95;;
28335;SDS011;15592;53.656;7.276;2023-08-06T08:01:40;2.28;;;2.08;;
28335;SDS011;15592;53.656;7.276;2023-08-06T08:04:06;2.53;;;2.28;;
28335;SDS011;15592;53.656;7.276;2023-08-06T08:06:32;2.90;;;2.33;;
28335;SDS011;15592;53.656;7.276;2023-08-06T08:08:58;2.55;;;2.20;;
28335;SDS011;15592;53.656;7.276;2023-08-06T08:11:25;2.28;;;2.08;;
28335;SDS011;15592;53.656;7.276;2023-08-06T08:13:51;2.00;;;1.80;;
28335;SDS011;15592;53.656;7.276;2023-08-06T08:16:17;2.22;;;2.00;;
28335;SDS011;15592;53.656;7.276;2023-08-06T08:18:42;3.05;;;2.75;;
28335;SDS011;15592;53.656;7.276;2023-08-06T08:21:08;3.28;;;2.97;;
28335;SDS011;15592;53.656;7.276;2023-08-06T08:23:34;4.05;;;3.28;;
28335;SDS011;15592;53.656;7.276;2023-08-06T08:25:59;3.75;;;3.08;;
28335;SDS011;15592;53.656;7.276;2023-08-06T08:28:27;3.28;;;2.95;;
28335;SDS011;15592;53.656;7.276;2023-08-06T08:30:52;2.35;;;2.15;;
28335;SDS011;15592;53.656;7.276;2023-08-06T08:33:18;2.70;;;2.50;;
28335;SDS011;15592;53.656;7.276;2023-08-06T08:35:45;3.55;;;2.45;;
28335;SDS011;15592;53.656;7.276;2023-08-06T08:38:11;2.55;;;2.35;;
28335;SDS011;15592;53.656;7.276;2023-08-06T08:40:37;2.35;;;2.03;;
28335;SDS011;15592;53.656;7.276;2023-08-06T08:43:08;2.53;;;2.33;;
28335;SDS011;15592;53.656;7.276;2023-08-06T08:45:35;2.63;;;2.20;;
28335;SDS011;15592;53.656;7.276;2023-08-06T08:48:04;2.55;;;2.35;;
28335;SDS011;15592;53.656;7.276;2023-08-06T08:50:30;2.38;;;2.17;;
28335;SDS011;15592;53.656;7.276;2023-08-06T08:52:56;2.50;;;2.30;;
28335;SDS011;15592;53.656;7.276;2023-08-06T08:55:22;2.60;;;2.00;;
28335;SDS011;15592;53.656;7.276;2023-08-06T08:57:48;2.30;;;2.05;;
28335;SDS011;15592;53.656;7.276;2023-08-06T09:00:14;2.30;;;2.10;;
28335;SDS011;15592;53.656;7.276;2023-08-06T09:02:40;1.95;;;1.85;;
28335;SDS011;15592;53.656;7.276;2023-08-06T09:05:07;2.35;;;2.10;;
28335;SDS011;15592;53.656;7.276;2023-08-06T09:07:43;3.10;;;2.20;;
28335;SDS011;15592;53.656;7.276;2023-08-06T09:10:13;2.60;;;2.40;;
28335;SDS011;15592;53.656;7.276;2023-08-06T09:12:43;2.92;;;2.35;;
28335;SDS011;15592;53.656;7.276;2023-08-06T09:15:09;2.35;;;2.15;;
28335;SDS011;15592;53.656;7.276;2023-08-06T09:17:36;2.50;;;2.30;;
28335;SDS011;15592;53.656;7.276;2023-08-06T09:20:09;2.20;;;2.00;;
28335;SDS011;15592;53.656;7.276;2023-08-06T09:22:38;1.92;;;1.83;;
28335;SDS011;15592;53.656;7.276;2023-08-06T09:25:04;2.05;;;1.85;;
28335;SDS011;15592;53.656;7.276;2023-08-06T09:27:34;2.70;;;1.98;;
28335;SDS011;15592;53.656;7.276;2023-08-06T09:30:01;2.40;;;2.20;;
28335;SDS011;15592;53.656;7.276;2023-08-06T09:32:50;2.17;;;1.98;;
28335;SDS011;15592;53.656;7.276;2023-08-06T09:35:19;2.50;;;2.13;;
28335;SDS011;15592;53.656;7.276;2023-08-06T09:37:46;2.22;;;1.90;;
28335;SDS011;15592;53.656;7.276;2023-08-06T09:43:19;2.35;;;2.15;;
28335;SDS011;15592;53.656;7.276;2023-08-06T09:45:44;2.28;;;2.08;;
28335;SDS011;15592;53.656;7.276;2023-08-06T09:48:10;2.78;;;2.33;;
28335;SDS011;15592;53.656;7.276;2023-08-06T09:50:37;3.70;;;2.30;;
28335;SDS011;15592;53.656;7.276;2023-08-06T09:53:04;3.28;;;2.60;;
28335;SDS011;15592;53.656;7.276;2023-08-06T09:55:32;4.72;;;3.03;;
28335;SDS011;15592;53.656;7.276;2023-08-06T09:57:59;3.08;;;2.40;;
28335;SDS011;15592;53.656;7.276;2023-08-06T10:00:25;2.35;;;2.15;;
28335;SDS011;15592;53.656;7.276;2023-08-06T10:02:53;2.50;;;2.30;;
28335;SDS011;15592;53.656;7.276;2023-08-06T10:05:21;3.63;;;2.72;;
28335;SDS011;15592;53.656;7.276;2023-08-06T10:07:51;3.38;;;2.70;;
28335;SDS011;15592;53.656;7.276;2023-08-06T10:10:25;2.90;;;2.60;;
28335;SDS011;15592;53.656;7.276;2023-08-06T10:12:54;3.10;;;2.40;;
28335;SDS011;15592;53.656;7.276;2023-08-06T10:15:23;2.67;;;2.25;;
28335;SDS011;15592;53.656;7.276;2023-08-06T10:18:00;2.55;;;2.25;;
28335;SDS011;15592;53.656;7.276;2023-08-06T10:20:27;3.08;;;2.30;;
28335;SDS011;15592;53.656;7.276;2023-08-06T10:23:02;2.75;;;2.47;;
28335;SDS011;15592;53.656;7.276;2023-08-06T10:25:32;3.20;;;2.40;;
28335;SDS011;15592;53.656;7.276;2023-08-06T10:30:31;2.30;;;2.10;;
28335;SDS011;15592;53.656;7.276;2023-08-06T10:32:58;2.35;;;2.03;;
28335;SDS011;15592;53.656;7.276;2023-08-06T10:35:29;2.80;;;2.25;;
28335;SDS011;15592;53.656;7.276;2023-08-06T10:43:26;2.83;;;2.53;;
28335;SDS011;15592;53.656;7.276;2023-08-06T10:46:01;2.92;;;2.40;;
28335;SDS011;15592;53.656;7.276;2023-08-06T10:48:30;2.92;;;2.63;;
28335;SDS011;15592;53.656;7.276;2023-08-06T10:51:01;2.63;;;2.28;;
28335;SDS011;15592;53.656;7.276;2023-08-06T10:53:27;2.95;;;2.50;;
28335;SDS011;15592;53.656;7.276;2023-08-06T10:55:54;2.88;;;2.35;;
28335;SDS011;15592;53.656;7.276;2023-08-06T10:58:19;4.00;;;2.60;;
28335;SDS011;15592;53.656;7.276;2023-08-06T11:00:45;3.00;;;2.40;;
28335;SDS011;15592;53.656;7.276;2023-08-06T11:03:11;2.80;;;2.33;;
28335;SDS011;15592;53.656;7.276;2023-08-06T11:05:37;3.38;;;2.10;;
28335;SDS011;15592;53.656;7.276;2023-08-06T11:08:03;4.57;;;2.28;;
28335;SDS011;15592;53.656;7.276;2023-08-06T11:10:29;2.95;;;2.20;;
28335;SDS011;15592;53.656;7.276;2023-08-06T11:13:00;2.60;;;2.20;;
28335;SDS011;15592;53.656;7.276;2023-08-06T11:15:27;4.22;;;2.10;;
28335;SDS011;15592;53.656;7.276;2023-08-06T11:17:53;2.85;;;2.03;;
28335;SDS011;15592;53.656;7.276;2023-08-06T11:20:19;4.93;;;2.50;;
28335;SDS011;15592;53.656;7.276;2023-08-06T11:22:47;3.78;;;2.40;;
28335;SDS011;15592;53.656;7.276;2023-08-06T11:25:12;2.50;;;2.30;;
28335;SDS011;15592;53.656;7.276;2023-08-06T11:27:38;2.85;;;2.13;;
28335;SDS011;15592;53.656;7.276;2023-08-06T11:30:04;4.15;;;2.08;;
28335;SDS011;15592;53.656;7.276;2023-08-06T11:32:30;3.60;;;2.35;;
28335;SDS011;15592;53.656;7.276;2023-08-06T11:35:09;2.40;;;2.20;;
28335;SDS011;15592;53.656;7.276;2023-08-06T11:37:36;4.03;;;2.28;;
28335;SDS011;15592;53.656;7.276;2023-08-06T11:40:10;3.35;;;2.30;;
28335;SDS011;15592;53.656;7.276;2023-08-06T11:42:38;3.38;;;2.53;;
28335;SDS011;15592;53.656;7.276;2023-08-06T11:45:04;3.05;;;2.05;;
28335;SDS011;15592;53.656;7.276;2023-08-06T11:50:55;2.67;;;2.10;;
28335;SDS011;15592;53.656;7.276;2023-08-06T11:53:26;3.75;;;2.17;;
28335;SDS011;15592;53.656;7.276;2023-08-06T11:55:53;3.72;;;2.10;;
28335;SDS011;15592;53.656;7.276;2023-08-06T11:58:18;3.65;;;2.38;;
28335;SDS011;15592;53.656;7.276;2023-08-06T12:00:44;4.60;;;2.53;;
28335;SDS011;15592;53.656;7.276;2023-08-06T12:03:10;2.97;;;2.28;;
28335;SDS011;15592;53.656;7.276;2023-08-06T12:05:35;4.82;;;2.50;;
28335;SDS011;15592;53.656;7.276;2023-08-06T12:08:03;4.13;;;2.20;;
28335;SDS011;15592;53.656;7.276;2023-08-06T12:10:29;3.13;;;2.20;;
28335;SDS011;15592;53.656;7.276;2023-08-06T12:12:56;3.28;;;2.30;;
28335;SDS011;15592;53.656;7.276;2023-08-06T12:15:22;3.40;;;2.10;;
28335;SDS011;15592;53.656;7.276;2023-08-06T12:17:49;3.35;;;2.10;;
28335;SDS011;15592;53.656;7.276;2023-08-06T12:20:15;3.17;;;2.42;;
28335;SDS011;15592;53.656;7.276;2023-08-06T12:22:41;4.07;;;2.30;;
28335;SDS011;15592;53.656;7.276;2023-08-06T12:25:07;4.25;;;2.47;;
28335;SDS011;15592;53.656;7.276;2023-08-06T12:27:37;4.10;;;2.40;;
28335;SDS011;15592;53.656;7.276;2023-08-06T12:30:24;3.35;;;2.35;;
28335;SDS011;15592;53.656;7.276;2023-08-06T12:32:49;2.92;;;2.30;;
28335;SDS011;15592;53.656;7.276;2023-08-06T12:35:50;3.72;;;2.67;;
28335;SDS011;15592;53.656;7.276;2023-08-06T12:38:37;2.70;;;2.05;;
28335;SDS011;15592;53.656;7.276;2023-08-06T12:41:12;4.90;;;2.40;;
28335;SDS011;15592;53.656;7.276;2023-08-06T12:43:40;2.53;;;2.15;;
28335;SDS011;15592;53.656;7.276;2023-08-06T12:46:09;4.00;;;2.53;;
28335;SDS011;15592;53.656;7.276;2023-08-06T12:48:38;5.15;;;2.47;;
28335;SDS011;15592;53.656;7.276;2023-08-06T12:51:21;3.63;;;2.45;;
28335;SDS011;15592;53.656;7.276;2023-08-06T12:53:47;3.88;;;2.30;;
28335;SDS011;15592;53.656;7.276;2023-08-06T12:56:12;3.55;;;2.28;;
28335;SDS011;15592;53.656;7.276;2023-08-06T12:58:38;2.60;;;2.20;;
28335;SDS011;15592;53.656;7.276;2023-08-06T13:01:05;3.83;;;2.50;;
28335;SDS011;15592;53.656;7.276;2023-08-06T13:03:37;3.20;;;2.33;;
28335;SDS011;15592;53.656;7.276;2023-08-06T13:06:05;3.17;;;2.33;;
28335;SDS011;15592;53.656;7.276;2023-08-06T13:08:30;3.63;;;2.50;;
28335;SDS011;15592;53.656;7.276;2023-08-06T13:10:56;3.75;;;2.20;;
28335;SDS011;15592;53.656;7.276;2023-08-06T13:13:22;3.85;;;2.40;;
28335;SDS011;15592;53.656;7.276;2023-08-06T13:15:48;3.55;;;2.42;;
28335;SDS011;15592;53.656;7.276;2023-08-06T13:18:13;3.17;;;2.00;;
28335;SDS011;15592;53.656;7.276;2023-08-06T13:23:33;2.92;;;2.33;;
28335;SDS011;15592;53.656;7.276;2023-08-06T13:25:59;3.90;;;2.58;;
28335;SDS011;15592;53.656;7.276;2023-08-06T13:28:24;3.28;;;2.40;;
28335;SDS011;15592;53.656;7.276;2023-08-06T13:30:50;2.95;;;2.25;;
28335;SDS011;15592;53.656;7.276;2023-08-06T13:33:18;5.22;;;2.30;;
28335;SDS011;15592;53.656;7.276;2023-08-06T13:35:44;3.13;;;2.25;;
28335;SDS011;15592;53.656;7.276;2023-08-06T13:38:10;2.50;;;2.30;;
28335;SDS011;15592;53.656;7.276;2023-08-06T13:40:41;3.17;;;2.10;;
28335;SDS011;15592;53.656;7.276;2023-08-06T13:43:09;2.80;;;2.15;;
28335;SDS011;15592;53.656;7.276;2023-08-06T13:45:34;3.28;;;2.13;;
28335;SDS011;15592;53.656;7.276;2023-08-06T13:48:01;5.10;;;2.15;;
28335;SDS011;15592;53.656;7.276;2023-08-06T13:50:28;2.97;;;2.03;;
28335;SDS011;15592;53.656;7.276;2023-08-06T13:56:16;3.20;;;2.45;;
28335;SDS011;15592;53.656;7.276;2023-08-06T13:58:42;2.17;;;1.90;;
28335;SDS011;15592;53.656;7.276;2023-08-06T14:01:13;2.85;;;2.05;;
28335;SDS011;15592;53.656;7.276;2023-08-06T14:04:00;3.08;;;2.25;;
28335;SDS011;15592;53.656;7.276;2023-08-06T14:06:26;4.15;;;2.30;;
28335;SDS011;15592;53.656;7.276;2023-08-06T14:08:51;3.65;;;2.35;;
28335;SDS011;15592;53.656;7.276;2023-08-06T14:11:17;3.17;;;2.33;;
28335;SDS011;15592;53.656;7.276;2023-08-06T14:13:43;3.90;;;2.15;;
28335;SDS011;15592;53.656;7.276;2023-08-06T14:16:08;3.72;;;2.45;;
28335;SDS011;15592;53.656;7.276;2023-08-06T14:18:41;2.97;;;2.30;;
28335;SDS011;15592;53.656;7.276;2023-08-06T14:21:13;4.00;;;2.70;;
28335;SDS011;15592;53.656;7.276;2023-08-06T14:23:41;3.15;;;2.08;;
28335;SDS011;15592;53.656;7.276;2023-08-06T14:26:07;2.90;;;2.42;;
28335;SDS011;15592;53.656;7.276;2023-08-06T14:28:49;4.03;;;2.47;;
28335;SDS011;15592;53.656;7.276;2023-08-06T14:31:28;3.55;;;2.45;;
28335;SDS011;15592;53.656;7.276;2023-08-06T14:33:56;4.15;;;2.47;;
28335;SDS011;15592;53.656;7.276;2023-08-06T14:36:22;3.58;;;2.50;;
28335;SDS011;15592;53.656;7.276;2023-08-06T14:38:48;3.15;;;2.30;;
28335;SDS011;15592;53.656;7.276;2023-08-06T14:41:22;3.83;;;2.15;;
28335;SDS011;15592;53.656;7.276;2023-08-06T14:43:49;4.43;;;2.10;;
28335;SDS011;15592;53.656;7.276;2023-08-06T14:46:15;3.22;;;2.60;;
28335;SDS011;15592;53.656;7.276;2023-08-06T14:48:43;3.05;;;2.20;;
28335;SDS011;15592;53.656;7.276;2023-08-06T14:51:08;3.72;;;2.70;;
28335;SDS011;15592;53.656;7.276;2023-08-06T14:53:34;3.90;;;2.47;;
28335;SDS011;15592;53.656;7.276;2023-08-06T14:56:00;3.10;;;2.30;;
28335;SDS011;15592;53.656;7.276;2023-08-06T14:58:25;4.47;;;2.10;;
28335;SDS011;15592;53.656;7.276;2023-08-06T15:00:52;3.45;;;2.20;;
28335;SDS011;15592;53.656;7.276;2023-08-06T15:03:17;3.25;;;2.25;;
28335;SDS011;15592;53.656;7.276;2023-08-06T15:05:43;2.95;;;2.30;;
28335;SDS011;15592;53.656;7.276;2023-08-06T15:08:13;2.63;;;2.20;;
28335;SDS011;15592;53.656;7.276;2023-08-06T15:10:42;3.15;;;2.38;;
28335;SDS011;15592;53.656;7.276;2023-08-06T15:13:31;3.63;;;2.28;;
28335;SDS011;15592;53.656;7.276;2023-08-06T15:15:56;4.00;;;2.20;;